sensor_id;sensor_type;location;lat;lon;timestamp;pressure;altitude;pressure_sealevel;temperature;humidity
69318;BME280;56457;52.190;4.440;2023-04-09T00:00:04;102766.78;;;7.95;100.00
69318;BME280;56457;52.190;4.440;2023-04-09T00:01:05;102767.50;;;7.91;100.00
69318;BME280;56457;52.190;4.440;2023-04-09T00:02:08;102768.59;;;7.98;100.00
69318;BME280;56457;52.190;4.440;2023-04-09T00:03:08;102760.91;;;8.02;100.00
69318;BME280;56457;52.190;4.440;2023-04-09T00:04:09;102766.88;;;7.98;100.00
69318;BME280;56457;52.190;4.440;2023-04-09T00:05:10;102775.50;;;7.96;100.00
69318;BME280;56457;52.190;4.440;2023-04-09T00:06:10;102765.06;;;7.96;100.00
69318;BME280;56457;52.190;4.440;2023-04-09T00:07:11;102773.72;;;7.95;100.00
69318;BME280;56457;52.190;4.440;2023-04-09T00:08:11;102777.03;;;7.89;100.00
69318;BME280;56457;52.190;4.440;2023-04-09T00:09:12;102772.63;;;7.88;100.00
69318;BME280;56457;52.190;4.440;2023-04-09T00:10:12;102768.22;;;7.87;100.00
69318;BME280;56457;52.190;4.440;2023-04-09T00:11:13;102774.22;;;7.83;100.00
69318;BME280;56457;52.190;4.440;2023-04-09T00:12:13;102769.91;;;7.85;100.00
69318;BME280;56457;52.190;4.440;2023-04-09T00:13:13;102770.88;;;7.89;100.00
69318;BME280;56457;52.190;4.440;2023-04-09T00:14:14;102769.19;;;7.89;100.00
69318;BME280;56457;52.190;4.440;2023-04-09T00:15:14;102765.41;;;7.81;100.00
69318;BME280;56457;52.190;4.440;2023-04-09T00:16:14;102768.81;;;7.78;100.00
69318;BME280;56457;52.190;4.440;2023-04-09T00:17:15;102769.66;;;7.77;100.00
69318;BME280;56457;52.190;4.440;2023-04-09T00:18:16;102777.63;;;7.82;100.00
69318;BME280;56457;52.190;4.440;2023-04-09T00:19:16;102772.28;;;7.77;100.00
69318;BME280;56457;52.190;4.440;2023-04-09T00:20:17;102777.41;;;7.76;100.00
69318;BME280;56457;52.190;4.440;2023-04-09T00:21:17;102779.94;;;7.73;100.00
69318;BME280;56457;52.190;4.440;2023-04-09T00:22:17;102775.56;;;7.72;100.00
69318;BME280;56457;52.190;4.440;2023-04-09T00:23:18;102771.31;;;7.75;100.00
69318;BME280;56457;52.190;4.440;2023-04-09T00:24:19;102782.66;;;7.76;100.00
69318;BME280;56457;52.190;4.440;2023-04-09T00:25:20;102778.38;;;7.78;100.00
69318;BME280;56457;52.190;4.440;2023-04-09T00:26:20;102779.28;;;7.78;100.00
69318;BME280;56457;52.190;4.440;2023-04-09T00:27:21;102787.16;;;7.80;100.00
69318;BME280;56457;52.190;4.440;2023-04-09T00:28:21;102772.31;;;7.79;100.00
69318;BME280;56457;52.190;4.440;2023-04-09T00:29:22;102777.22;;;7.70;100.00
69318;BME280;56457;52.190;4.440;2023-04-09T00:30:22;102773.88;;;7.74;100.00
69318;BME280;56457;52.190;4.440;2023-04-09T00:31:22;102778.34;;;7.76;100.00
69318;BME280;56457;52.190;4.440;2023-04-09T00:32:23;102774.72;;;7.73;100.00
69318;BME280;56457;52.190;4.440;2023-04-09T00:33:23;102776.31;;;7.69;100.00
69318;BME280;56457;52.190;4.440;2023-04-09T00:34:24;102774.50;;;7.67;100.00
69318;BME280;56457;52.190;4.440;2023-04-09T00:35:24;102775.44;;;7.69;100.00
69318;BME280;56457;52.190;4.440;2023-04-09T00:36:25;102777.06;;;7.65;100.00
69318;BME280;56457;52.190;4.440;2023-04-09T00:37:25;102773.72;;;7.69;100.00
69318;BME280;56457;52.190;4.440;2023-04-09T00:38:25;102777.22;;;7.70;100.00
69318;BME280;56457;52.190;4.440;2023-04-09T00:39:26;102768.28;;;7.63;100.00
69318;BME280;56457;52.190;4.440;2023-04-09T00:40:26;102780.53;;;7.64;100.00
69318;BME280;56457;52.190;4.440;2023-04-09T00:41:27;102770.22;;;7.69;100.00
69318;BME280;56457;52.190;4.440;2023-04-09T00:42:30;102770.16;;;7.67;100.00
69318;BME280;56457;52.190;4.440;2023-04-09T00:43:31;102771.69;;;7.61;100.00
69318;BME280;56457;52.190;4.440;2023-04-09T00:44:31;102771.72;;;7.62;100.00
69318;BME280;56457;52.190;4.440;2023-04-09T00:45:32;102772.53;;;7.60;100.00
69318;BME280;56457;52.190;4.440;2023-04-09T00:46:32;102762.91;;;7.59;100.00
69318;BME280;56457;52.190;4.440;2023-04-09T00:47:33;102767.25;;;7.58;100.00
69318;BME280;56457;52.190;4.440;2023-04-09T00:48:33;102762.78;;;7.55;100.00
69318;BME280;56457;52.190;4.440;2023-04-09T00:49:34;102763.78;;;7.59;100.00
69318;BME280;56457;52.190;4.440;2023-04-09T00:50:35;102773.22;;;7.55;100.00
69318;BME280;56457;52.190;4.440;2023-04-09T00:51:35;102767.16;;;7.56;100.00
69318;BME280;56457;52.190;4.440;2023-04-09T00:52:36;102770.66;;;7.57;100.00
69318;BME280;56457;52.190;4.440;2023-04-09T00:53:36;102769.72;;;7.55;100.00
69318;BME280;56457;52.190;4.440;2023-04-09T00:54:37;102767.91;;;7.52;100.00
69318;BME280;56457;52.190;4.440;2023-04-09T00:55:38;102771.34;;;7.51;100.00
69318;BME280;56457;52.190;4.440;2023-04-09T00:56:39;102764.28;;;7.49;100.00
69318;BME280;56457;52.190;4.440;2023-04-09T00:57:40;102772.91;;;7.46;100.00
69318;BME280;56457;52.190;4.440;2023-04-09T00:58:40;102767.78;;;7.49;100.00
69318;BME280;56457;52.190;4.440;2023-04-09T00:59:41;102768.81;;;7.53;100.00
69318;BME280;56457;52.190;4.440;2023-04-09T01:00:42;102766.06;;;7.50;100.00
69318;BME280;56457;52.190;4.440;2023-04-09T01:01:42;102766.03;;;7.48;100.00
69318;BME280;56457;52.190;4.440;2023-04-09T01:02:43;102766.03;;;7.48;100.00
69318;BME280;56457;52.190;4.440;2023-04-09T01:03:43;102767.69;;;7.46;100.00
69318;BME280;56457;52.190;4.440;2023-04-09T01:04:44;102772.91;;;7.46;100.00
69318;BME280;56457;52.190;4.440;2023-04-09T01:06:52;102767.84;;;7.51;100.00
69318;BME280;56457;52.190;4.440;2023-04-09T01:08:02;102771.34;;;7.51;100.00
69318;BME280;56457;52.190;4.440;2023-04-09T01:09:12;102763.50;;;7.51;100.00
69318;BME280;56457;52.190;4.440;2023-04-09T01:15:20;102760.84;;;7.50;100.00
69318;BME280;56457;52.190;4.440;2023-04-09T01:16:21;102764.25;;;7.47;100.00
69318;BME280;56457;52.190;4.440;2023-04-09T01:17:24;102760.69;;;7.45;100.00
69318;BME280;56457;52.190;4.440;2023-04-09T01:18:29;102758.09;;;7.45;100.00
69318;BME280;56457;52.190;4.440;2023-04-09T01:20:40;102762.56;;;7.49;100.00
69318;BME280;56457;52.190;4.440;2023-04-09T01:21:41;102760.88;;;7.51;100.00
69318;BME280;56457;52.190;4.440;2023-04-09T01:24:08;102755.41;;;7.44;100.00
69318;BME280;56457;52.190;4.440;2023-04-09T01:26:40;102753.59;;;7.41;100.00
69318;BME280;56457;52.190;4.440;2023-04-09T01:27:43;102762.09;;;7.36;100.00
69318;BME280;56457;52.190;4.440;2023-04-09T01:28:45;102760.50;;;7.39;100.00
69318;BME280;56457;52.190;4.440;2023-04-09T01:29:47;102757.91;;;7.41;100.00
69318;BME280;56457;52.190;4.440;2023-04-09T01:30:51;102761.28;;;7.38;100.00
69318;BME280;56457;52.190;4.440;2023-04-09T01:31:52;102767.47;;;7.40;100.00
69318;BME280;56457;52.190;4.440;2023-04-09T01:32:53;102759.56;;;7.39;100.00
69318;BME280;56457;52.190;4.440;2023-04-09T01:33:55;102763.84;;;7.37;100.00
69318;BME280;56457;52.190;4.440;2023-04-09T01:34:56;102761.19;;;7.35;100.00
69318;BME280;56457;52.190;4.440;2023-04-09T01:35:57;102763.97;;;7.40;100.00
69318;BME280;56457;52.190;4.440;2023-04-09T01:36:58;102758.63;;;7.37;100.00
69318;BME280;56457;52.190;4.440;2023-04-09T01:37:59;102769.03;;;7.35;100.00
69318;BME280;56457;52.190;4.440;2023-04-09T01:39:00;102763.69;;;7.32;100.00
69318;BME280;56457;52.190;4.440;2023-04-09T01:40:01;102765.25;;;7.27;100.00
69318;BME280;56457;52.190;4.440;2023-04-09T01:41:04;102761.97;;;7.33;100.00
69318;BME280;56457;52.190;4.440;2023-04-09T01:42:06;102764.34;;;7.26;100.00
69318;BME280;56457;52.190;4.440;2023-04-09T01:43:10;102761.88;;;7.29;100.00
69318;BME280;56457;52.190;4.440;2023-04-09T01:44:11;102752.34;;;7.32;100.00
69318;BME280;56457;52.190;4.440;2023-04-09T01:45:12;102758.25;;;7.26;100.00
69318;BME280;56457;52.190;4.440;2023-04-09T01:46:14;102760.13;;;7.30;100.00
69318;BME280;56457;52.190;4.440;2023-04-09T01:47:15;102760.31;;;7.35;100.00
69318;BME280;56457;52.190;4.440;2023-04-09T01:48:16;102753.38;;;7.35;100.00
69318;BME280;56457;52.190;4.440;2023-04-09T01:49:16;102766.38;;;7.34;100.00
69318;BME280;56457;52.190;4.440;2023-04-09T01:50:17;102768.84;;;7.31;100.00
69318;BME280;56457;52.190;4.440;2023-04-09T01:51:18;102758.41;;;7.31;100.00
69318;BME280;56457;52.190;4.440;2023-04-09T01:52:18;102761.81;;;7.28;100.00
69318;BME280;56457;52.190;4.440;2023-04-09T01:53:19;102762.66;;;7.27;100.00
69318;BME280;56457;52.190;4.440;2023-04-09T01:54:20;102759.25;;;7.29;100.00
69318;BME280;56457;52.190;4.440;2023-04-09T01:55:20;102763.47;;;7.26;100.00
69318;BME280;56457;52.190;4.440;2023-04-09T01:56:21;102757.34;;;7.25;100.00
69318;BME280;56457;52.190;4.440;2023-04-09T01:57:21;102760.84;;;7.26;100.00
69318;BME280;56457;52.190;4.440;2023-04-09T01:58:22;102755.72;;;7.27;100.00
69318;BME280;56457;52.190;4.440;2023-04-09T01:59:23;102762.53;;;7.24;100.00
69318;BME280;56457;52.190;4.440;2023-04-09T02:00:24;102761.72;;;7.26;100.00
69318;BME280;56457;52.190;4.440;2023-04-09T02:01:29;102763.31;;;7.21;100.00
69318;BME280;56457;52.190;4.440;2023-04-09T02:02:34;102764.31;;;7.25;100.00
69318;BME280;56457;52.190;4.440;2023-04-09T02:03:37;102763.59;;;7.29;100.00
69318;BME280;56457;52.190;4.440;2023-04-09T02:04:48;102772.09;;;7.23;100.00
69318;BME280;56457;52.190;4.440;2023-04-09T02:07:26;102763.47;;;7.26;100.00
69318;BME280;56457;52.190;4.440;2023-04-09T02:08:29;102763.59;;;7.29;100.00
69318;BME280;56457;52.190;4.440;2023-04-09T02:09:30;102757.34;;;7.25;100.00
69318;BME280;56457;52.190;4.440;2023-04-09T02:10:31;102761.97;;;7.33;100.00
69318;BME280;56457;52.190;4.440;2023-04-09T02:11:36;102754.13;;;7.33;100.00
69318;BME280;56457;52.190;4.440;2023-04-09T02:12:37;102755.81;;;7.31;100.00
69318;BME280;56457;52.190;4.440;2023-04-09T02:13:39;102747.97;;;7.31;100.00
69318;BME280;56457;52.190;4.440;2023-04-09T02:14:43;102750.50;;;7.27;100.00
69318;BME280;56457;52.190;4.440;2023-04-09T02:15:45;102752.00;;;7.21;100.00
69318;BME280;56457;52.190;4.440;2023-04-09T02:16:46;102738.09;;;7.22;100.00
69318;BME280;56457;52.190;4.440;2023-04-09T02:17:46;102750.31;;;7.23;100.00
69318;BME280;56457;52.190;4.440;2023-04-09T02:18:46;102742.34;;;7.20;100.00
69318;BME280;56457;52.190;4.440;2023-04-09T02:19:47;102748.53;;;7.22;100.00
69318;BME280;56457;52.190;4.440;2023-04-09T02:20:48;102747.66;;;7.21;100.00
69318;BME280;56457;52.190;4.440;2023-04-09T02:21:48;102745.09;;;7.23;100.00
69318;BME280;56457;52.190;4.440;2023-04-09T02:22:49;102738.19;;;7.25;100.00
69318;BME280;56457;52.190;4.440;2023-04-09T02:23:49;102745.13;;;7.24;100.00
69318;BME280;56457;52.190;4.440;2023-04-09T02:24:50;102744.25;;;7.24;100.00
69318;BME280;56457;52.190;4.440;2023-04-09T02:25:50;102734.69;;;7.24;100.00
69318;BME280;56457;52.190;4.440;2023-04-09T02:26:51;102736.41;;;7.24;100.00
69318;BME280;56457;52.190;4.440;2023-04-09T02:27:52;102740.75;;;7.23;100.00
69318;BME280;56457;52.190;4.440;2023-04-09T02:28:52;102734.75;;;7.26;100.00
69318;BME280;56457;52.190;4.440;2023-04-09T02:29:52;102735.63;;;7.26;100.00
69318;BME280;56457;52.190;4.440;2023-04-09T02:30:53;102726.91;;;7.26;100.00
69318;BME280;56457;52.190;4.440;2023-04-09T02:31:53;102730.31;;;7.23;100.00
69318;BME280;56457;52.190;4.440;2023-04-09T02:32:54;102735.72;;;7.28;100.00
69318;BME280;56457;52.190;4.440;2023-04-09T02:33:54;102737.34;;;7.26;100.00
69318;BME280;56457;52.190;4.440;2023-04-09T02:34:55;102735.59;;;7.25;100.00
69318;BME280;56457;52.190;4.440;2023-04-09T02:35:55;102733.94;;;7.27;100.00
69318;BME280;56457;52.190;4.440;2023-04-09T02:36:55;102735.81;;;7.31;100.00
69318;BME280;56457;52.190;4.440;2023-04-09T02:37:56;102725.41;;;7.33;100.00
69318;BME280;56457;52.190;4.440;2023-04-09T02:38:56;102738.53;;;7.34;100.00
69318;BME280;56457;52.190;4.440;2023-04-09T02:39:57;102730.75;;;7.36;100.00
69318;BME280;56457;52.190;4.440;2023-04-09T02:40:57;102725.56;;;7.37;100.00
69318;BME280;56457;52.190;4.440;2023-04-09T02:41:57;102730.78;;;7.37;100.00
69318;BME280;56457;52.190;4.440;2023-04-09T02:42:58;102727.25;;;7.35;100.00
69318;BME280;56457;52.190;4.440;2023-04-09T02:44:01;102723.63;;;7.32;100.00
69318;BME280;56457;52.190;4.440;2023-04-09T02:45:02;102730.47;;;7.28;100.00
69318;BME280;56457;52.190;4.440;2023-04-09T02:46:02;102726.09;;;7.27;100.00
69318;BME280;56457;52.190;4.440;2023-04-09T02:47:02;102724.44;;;7.29;100.00
69318;BME280;56457;52.190;4.440;2023-04-09T02:48:03;102731.31;;;7.27;100.00
69318;BME280;56457;52.190;4.440;2023-04-09T02:49:04;102718.97;;;7.23;100.00
69318;BME280;56457;52.190;4.440;2023-04-09T02:50:04;102724.16;;;7.21;100.00
69318;BME280;56457;52.190;4.440;2023-04-09T02:51:05;102718.94;;;7.21;100.00
69318;BME280;56457;52.190;4.440;2023-04-09T02:52:05;102718.19;;;7.25;100.00
69318;BME280;56457;52.190;4.440;2023-04-09T02:53:06;102720.94;;;7.28;100.00
69318;BME280;56457;52.190;4.440;2023-04-09T02:54:06;102715.78;;;7.32;100.00
69318;BME280;56457;52.190;4.440;2023-04-09T02:55:07;102718.53;;;7.35;100.00
69318;BME280;56457;52.190;4.440;2023-04-09T02:56:07;102714.19;;;7.35;100.00
69318;BME280;56457;52.190;4.440;2023-04-09T02:57:07;102713.97;;;7.29;100.00
69318;BME280;56457;52.190;4.440;2023-04-09T02:58:08;102713.97;;;7.29;100.00
69318;BME280;56457;52.190;4.440;2023-04-09T02:59:08;102717.53;;;7.31;100.00
69318;BME280;56457;52.190;4.440;2023-04-09T03:00:09;102709.69;;;7.31;100.00
69318;BME280;56457;52.190;4.440;2023-04-09T03:01:09;102707.03;;;7.29;100.00
69318;BME280;56457;52.190;4.440;2023-04-09T03:02:10;102706.16;;;7.29;100.00
69318;BME280;56457;52.190;4.440;2023-04-09T03:03:11;102712.22;;;7.28;100.00
69318;BME280;56457;52.190;4.440;2023-04-09T03:04:11;102711.25;;;7.26;100.00
69318;BME280;56457;52.190;4.440;2023-04-09T03:05:11;102708.41;;;7.20;100.00
69318;BME280;56457;52.190;4.440;2023-04-09T03:06:12;102709.22;;;7.17;100.00
69318;BME280;56457;52.190;4.440;2023-04-09T03:07:12;102705.72;;;7.17;100.00
69318;BME280;56457;52.190;4.440;2023-04-09T03:08:12;102710.94;;;7.17;100.00
69318;BME280;56457;52.190;4.440;2023-04-09T03:09:13;102708.28;;;7.15;100.00
69318;BME280;56457;52.190;4.440;2023-04-09T03:10:13;102710.13;;;7.19;100.00
69318;BME280;56457;52.190;4.440;2023-04-09T03:11:14;102711.03;;;7.20;100.00
69318;BME280;56457;52.190;4.440;2023-04-09T03:12:14;102708.53;;;7.23;100.00
69318;BME280;56457;52.190;4.440;2023-04-09T03:13:15;102711.03;;;7.20;100.00
69318;BME280;56457;52.190;4.440;2023-04-09T03:14:15;102704.91;;;7.19;100.00
69318;BME280;56457;52.190;4.440;2023-04-09T03:15:16;102706.69;;;7.20;100.00
69318;BME280;56457;52.190;4.440;2023-04-09T03:16:16;102706.59;;;7.17;100.00
69318;BME280;56457;52.190;4.440;2023-04-09T03:17:16;102710.94;;;7.17;100.00
69318;BME280;56457;52.190;4.440;2023-04-09T03:18:17;102710.09;;;7.18;100.00
69318;BME280;56457;52.190;4.440;2023-04-09T03:19:17;102708.31;;;7.17;100.00
69318;BME280;56457;52.190;4.440;2023-04-09T03:20:18;102707.44;;;7.16;100.00
69318;BME280;56457;52.190;4.440;2023-04-09T03:21:18;102711.88;;;7.19;100.00
69318;BME280;56457;52.190;4.440;2023-04-09T03:22:19;102708.31;;;7.17;100.00
69318;BME280;56457;52.190;4.440;2023-04-09T03:23:19;102696.19;;;7.19;100.00
69318;BME280;56457;52.190;4.440;2023-04-09T03:24:19;102704.78;;;7.15;100.00
69318;BME280;56457;52.190;4.440;2023-04-09T03:25:20;102697.84;;;7.15;100.00
69318;BME280;56457;52.190;4.440;2023-04-09T03:26:21;102702.25;;;7.18;100.00
69318;BME280;56457;52.190;4.440;2023-04-09T03:27:21;102697.94;;;7.18;100.00
69318;BME280;56457;52.190;4.440;2023-04-09T03:28:21;102699.44;;;7.12;100.00
69318;BME280;56457;52.190;4.440;2023-04-09T03:29:22;102702.22;;;7.16;100.00
69318;BME280;56457;52.190;4.440;2023-04-09T03:30:22;102695.22;;;7.15;100.00
69318;BME280;56457;52.190;4.440;2023-04-09T03:31:23;102697.84;;;7.15;100.00
69318;BME280;56457;52.190;4.440;2023-04-09T03:32:23;102696.16;;;7.17;100.00
69318;BME280;56457;52.190;4.440;2023-04-09T03:33:23;102695.28;;;7.17;100.00
69318;BME280;56457;52.190;4.440;2023-04-09T03:34:24;102692.84;;;7.21;100.00
69318;BME280;56457;52.190;4.440;2023-04-09T03:35:25;102691.94;;;7.21;100.00
69318;BME280;56457;52.190;4.440;2023-04-09T03:36:25;102692.84;;;7.21;100.00
69318;BME280;56457;52.190;4.440;2023-04-09T03:37:27;102689.38;;;7.22;100.00
69318;BME280;56457;52.190;4.440;2023-04-09T03:38:27;102694.59;;;7.22;100.00
69318;BME280;56457;52.190;4.440;2023-04-09T03:39:27;102692.91;;;7.24;100.00
69318;BME280;56457;52.190;4.440;2023-04-09T03:40:30;102688.53;;;7.23;100.00
69318;BME280;56457;52.190;4.440;2023-04-09T03:41:31;102682.53;;;7.26;100.00
69318;BME280;56457;52.190;4.440;2023-04-09T03:42:32;102687.81;;;7.27;100.00
69318;BME280;56457;52.190;4.440;2023-04-09T03:43:34;102682.66;;;7.29;100.00
69318;BME280;56457;52.190;4.440;2023-04-09T03:44:36;102684.53;;;7.33;100.00
69318;BME280;56457;52.190;4.440;2023-04-09T03:45:36;102685.34;;;7.32;100.00
69318;BME280;56457;52.190;4.440;2023-04-09T03:46:37;102674.88;;;7.31;100.00
69318;BME280;56457;52.190;4.440;2023-04-09T03:47:37;102675.56;;;7.26;100.00
69318;BME280;56457;52.190;4.440;2023-04-09T03:48:37;102678.16;;;7.25;100.00
69318;BME280;56457;52.190;4.440;2023-04-09T03:49:38;102677.22;;;7.23;100.00
69318;BME280;56457;52.190;4.440;2023-04-09T03:50:39;102678.06;;;7.22;100.00
69318;BME280;56457;52.190;4.440;2023-04-09T03:51:41;102677.16;;;7.21;100.00
69318;BME280;56457;52.190;4.440;2023-04-09T03:52:41;102676.28;;;7.21;100.00
69318;BME280;56457;52.190;4.440;2023-04-09T03:53:42;102674.59;;;7.23;100.00
69318;BME280;56457;52.190;4.440;2023-04-09T03:54:42;102675.38;;;7.20;100.00
69318;BME280;56457;52.190;4.440;2023-04-09T03:55:43;102679.69;;;7.20;100.00
69318;BME280;56457;52.190;4.440;2023-04-09T03:56:43;102678.78;;;7.18;100.00
69318;BME280;56457;52.190;4.440;2023-04-09T03:57:43;102675.44;;;7.22;100.00
69318;BME280;56457;52.190;4.440;2023-04-09T03:58:44;102675.69;;;7.29;100.00
69318;BME280;56457;52.190;4.440;2023-04-09T03:59:44;102675.66;;;7.28;100.00
69318;BME280;56457;52.190;4.440;2023-04-09T04:00:45;102680.03;;;7.29;100.00
69318;BME280;56457;52.190;4.440;2023-04-09T04:01:45;102671.28;;;7.27;100.00
69318;BME280;56457;52.190;4.440;2023-04-09T04:02:46;102673.94;;;7.28;100.00
69318;BME280;56457;52.190;4.440;2023-04-09T04:03:46;102678.28;;;7.28;100.00
69318;BME280;56457;52.190;4.440;2023-04-09T04:04:47;102670.56;;;7.33;100.00
69318;BME280;56457;52.190;4.440;2023-04-09T04:05:47;102674.03;;;7.32;100.00
69318;BME280;56457;52.190;4.440;2023-04-09T04:06:47;102674.88;;;7.31;100.00
69318;BME280;56457;52.190;4.440;2023-04-09T04:07:48;102672.38;;;7.34;100.00
69318;BME280;56457;52.190;4.440;2023-04-09T04:08:48;102675.88;;;7.34;100.00
69318;BME280;56457;52.190;4.440;2023-04-09T04:09:49;102678.63;;;7.39;100.00
69318;BME280;56457;52.190;4.440;2023-04-09T04:10:49;102673.50;;;7.42;100.00
69318;BME280;56457;52.190;4.440;2023-04-09T04:11:49;102677.06;;;7.44;100.00
69318;BME280;56457;52.190;4.440;2023-04-09T04:12:50;102675.31;;;7.44;100.00
69318;BME280;56457;52.190;4.440;2023-04-09T04:13:50;102670.91;;;7.42;100.00
69318;BME280;56457;52.190;4.440;2023-04-09T04:14:51;102666.56;;;7.42;100.00
69318;BME280;56457;52.190;4.440;2023-04-09T04:15:51;102676.22;;;7.45;100.00
69318;BME280;56457;52.190;4.440;2023-04-09T04:16:51;102672.00;;;7.48;100.00
69318;BME280;56457;52.190;4.440;2023-04-09T04:17:52;102667.72;;;7.50;100.00
69318;BME280;56457;52.190;4.440;2023-04-09T04:18:52;102668.75;;;7.55;100.00
69318;BME280;56457;52.190;4.440;2023-04-09T04:19:52;102668.88;;;7.59;100.00
69318;BME280;56457;52.190;4.440;2023-04-09T04:20:53;102673.25;;;7.60;100.00
69318;BME280;56457;52.190;4.440;2023-04-09T04:21:53;102669.75;;;7.59;100.00
69318;BME280;56457;52.190;4.440;2023-04-09T04:22:54;102668.00;;;7.58;100.00
69318;BME280;56457;52.190;4.440;2023-04-09T04:23:54;102672.25;;;7.56;100.00
69318;BME280;56457;52.190;4.440;2023-04-09T04:24:54;102667.06;;;7.57;100.00
69318;BME280;56457;52.190;4.440;2023-04-09T04:25:55;102661.03;;;7.59;100.00
69318;BME280;56457;52.190;4.440;2023-04-09T04:26:57;102668.13;;;7.63;100.00
69318;BME280;56457;52.190;4.440;2023-04-09T04:27:57;102664.66;;;7.64;100.00
69318;BME280;56457;52.190;4.440;2023-04-09T04:28:57;102658.50;;;7.62;100.00
69318;BME280;56457;52.190;4.440;2023-04-09T04:29:58;102670.72;;;7.63;100.00
69318;BME280;56457;52.190;4.440;2023-04-09T04:30:59;102662.00;;;7.62;100.00
69318;BME280;56457;52.190;4.440;2023-04-09T04:31:59;102661.25;;;7.65;100.00
69318;BME280;56457;52.190;4.440;2023-04-09T04:33:00;102663.00;;;7.66;100.00
69318;BME280;56457;52.190;4.440;2023-04-09T04:34:00;102666.50;;;7.66;100.00
69318;BME280;56457;52.190;4.440;2023-04-09T04:35:00;102669.13;;;7.66;100.00
69318;BME280;56457;52.190;4.440;2023-04-09T04:36:04;102662.22;;;7.68;100.00
69318;BME280;56457;52.190;4.440;2023-04-09T04:37:05;102676.91;;;7.65;100.00
69318;BME280;56457;52.190;4.440;2023-04-09T04:38:06;102673.47;;;7.66;100.00
69318;BME280;56457;52.190;4.440;2023-04-09T04:39:06;102674.38;;;7.68;100.00
69318;BME280;56457;52.190;4.440;2023-04-09T04:40:07;102677.88;;;7.68;100.00
69318;BME280;56457;52.190;4.440;2023-04-09T04:41:07;102677.13;;;7.71;100.00
69318;BME280;56457;52.190;4.440;2023-04-09T04:42:09;102678.03;;;7.73;100.00
69318;BME280;56457;52.190;4.440;2023-04-09T04:43:09;102672.03;;;7.75;100.00
69318;BME280;56457;52.190;4.440;2023-04-09T04:44:10;102673.03;;;7.79;100.00
69318;BME280;56457;52.190;4.440;2023-04-09T04:45:10;102675.69;;;7.80;100.00
69318;BME280;56457;52.190;4.440;2023-04-09T04:46:11;102675.84;;;7.85;100.00
69318;BME280;56457;52.190;4.440;2023-04-09T04:47:11;102679.34;;;7.86;100.00
69318;BME280;56457;52.190;4.440;2023-04-09T04:48:11;102683.00;;;7.91;100.00
69318;BME280;56457;52.190;4.440;2023-04-09T04:49:12;102681.31;;;7.93;100.00
69318;BME280;56457;52.190;4.440;2023-04-09T04:50:12;102684.84;;;7.95;100.00
69318;BME280;56457;52.190;4.440;2023-04-09T04:51:12;102679.69;;;7.96;100.00
69318;BME280;56457;52.190;4.440;2023-04-09T04:52:13;102684.06;;;7.97;100.00
69318;BME280;56457;52.190;4.440;2023-04-09T04:53:13;102682.38;;;7.99;100.00
69318;BME280;56457;52.190;4.440;2023-04-09T04:54:14;102680.78;;;8.03;100.00
69318;BME280;56457;52.190;4.440;2023-04-09T04:55:14;102685.25;;;8.07;100.00
69318;BME280;56457;52.190;4.440;2023-04-09T04:56:15;102682.63;;;8.07;100.00
69318;BME280;56457;52.190;4.440;2023-04-09T04:57:15;102687.09;;;8.09;100.00
69318;BME280;56457;52.190;4.440;2023-04-09T04:58:16;102683.75;;;8.14;100.00
69318;BME280;56457;52.190;4.440;2023-04-09T04:59:16;102681.13;;;8.14;100.00
69318;BME280;56457;52.190;4.440;2023-04-09T05:00:17;102687.25;;;8.14;100.00
69318;BME280;56457;52.190;4.440;2023-04-09T05:01:18;102679.47;;;8.17;100.00
69318;BME280;56457;52.190;4.440;2023-04-09T05:02:18;102684.84;;;8.22;100.00
69318;BME280;56457;52.190;4.440;2023-04-09T05:03:18;102677.94;;;8.24;100.00
69318;BME280;56457;52.190;4.440;2023-04-09T05:04:19;102685.00;;;8.26;100.00
69318;BME280;56457;52.190;4.440;2023-04-09T05:05:19;102685.94;;;8.28;100.00
69318;BME280;56457;52.190;4.440;2023-04-09T05:06:19;102683.47;;;8.33;100.00
69318;BME280;56457;52.190;4.440;2023-04-09T05:07:20;102684.47;;;8.36;100.00
69318;BME280;56457;52.190;4.440;2023-04-09T05:08:20;102685.34;;;8.37;100.00
69318;BME280;56457;52.190;4.440;2023-04-09T05:09:21;102681.00;;;8.38;100.00
69318;BME280;56457;52.190;4.440;2023-04-09T05:10:21;102681.09;;;8.41;100.00
69318;BME280;56457;52.190;4.440;2023-04-09T05:11:21;102679.38;;;8.41;100.00
69318;BME280;56457;52.190;4.440;2023-04-09T05:12:22;102679.44;;;8.44;100.00
69318;BME280;56457;52.190;4.440;2023-04-09T05:13:22;102684.75;;;8.46;100.00
69318;BME280;56457;52.190;4.440;2023-04-09T05:14:23;102677.84;;;8.48;100.00
69318;BME280;56457;52.190;4.440;2023-04-09T05:15:24;102673.53;;;8.50;100.00
69318;BME280;56457;52.190;4.440;2023-04-09T05:16:24;102682.38;;;8.53;100.00
69318;BME280;56457;52.190;4.440;2023-04-09T05:17:25;102681.47;;;8.53;100.00
69318;BME280;56457;52.190;4.440;2023-04-09T05:18:25;102683.25;;;8.54;100.00
69318;BME280;56457;52.190;4.440;2023-04-09T05:19:25;102686.84;;;8.57;100.00
69318;BME280;56457;52.190;4.440;2023-04-09T05:20:26;102676.44;;;8.59;100.00
69318;BME280;56457;52.190;4.440;2023-04-09T05:21:26;102680.84;;;8.61;100.00
69318;BME280;56457;52.190;4.440;2023-04-09T05:22:27;102679.25;;;8.67;100.00
69318;BME280;56457;52.190;4.440;2023-04-09T05:23:27;102679.25;;;8.67;100.00
69318;BME280;56457;52.190;4.440;2023-04-09T05:24:27;102679.13;;;8.62;100.00
69318;BME280;56457;52.190;4.440;2023-04-09T05:25:28;102680.00;;;8.62;100.00
69318;BME280;56457;52.190;4.440;2023-04-09T05:26:28;102677.38;;;8.62;100.00
69318;BME280;56457;52.190;4.440;2023-04-09T05:27:28;102684.44;;;8.63;100.00
69318;BME280;56457;52.190;4.440;2023-04-09T05:28:29;102680.09;;;8.66;100.00
69318;BME280;56457;52.190;4.440;2023-04-09T05:29:29;102679.25;;;8.67;100.00